AirNav   Air Wisconsin pilot careers
 
 1288 users online  

86F Carnegie Municipal Airport
Carnegie, Oklahoma, USA

GOING TO CARNEGIE?


FAA INFORMATION EFFECTIVE 13 SEPTEMBER 2018

Location

FAA Identifier: 86F
Lat/Long: 35-07-25.4000N / 098-34-30.9000W
35-07.423333N / 098-34.515000W
35.1237222 / -98.5752500
(estimated)
Elevation: 1354 ft. / 413 m (estimated)
Variation: 07E (1985)
From city: 2 miles NE of CARNEGIE, OK
Time zone: UTC -5 (UTC -6 during Standard Time)
Zip code: 73015

Airport Operations

Airport use: Open to the public
Activation date: 12/1972
Control tower: no
ARTCC: FORT WORTH CENTER
FSS: MC ALESTER FLIGHT SERVICE STATION
NOTAMs facility: MLC (NOTAM-D service available)
Attendance: UNATNDD
Wind indicator: yes
Segmented circle: no
Lights: ACTVT MIRL RY 17/35 - CTAF.

Airport Communications

CTAF: 122.9

Nearby radio navigation aids

VOR radial/distance  VOR name  Freq  Var
HBRr047/28.5HOBART VORTAC111.8010E
BFVr097/31.7BURNS FLAT VORTAC110.0005E
LAWr339/38.5LAWTON VOR/DME109.4009E

 
NDB name  Hdg/Dist  Freq  Var  ID
TRAIL329/22.238809EOFZ --- ..-. --..
POST337/32.042508EPFL .--. ..-. .-..

Airport Services

Parking: tiedowns
Airframe service: NONE
Powerplant service: NONE
Bottled oxygen: NONE
Bulk oxygen: NONE

Runway Information

Runway 17/35

Dimensions: 3000 x 60 ft. / 914 x 18 m
Surface: asphalt/concrete, in fair condition
Weight bearing capacity: 
Single wheel: 11.0
Runway edge lights: medium intensity
Gradient: S.
RUNWAY 17  RUNWAY 35
Latitude: 35-07.670003N35-07.175358N
Longitude: 098-34.512895W098-34.516102W
Elevation: 1342.0 ft.1354.0 ft.
Gradient: 0.4% UP0.4%
Traffic pattern: leftleft
Runway heading: 173 magnetic, 180 true353 magnetic, 000 true
Markings: basic, in fair conditionbasic, in fair condition
Obstructions: none9 ft. tree, 365 ft. from runway, 50 ft. left of centerline, 18:1 slope to clear
RWY 35 HAS 13 FT TREE 165 FT FROM RWY END AND 65 FT R.

Airport Ownership and Management from official FAA records

Ownership: Publicly-owned
Owner: CITY OF CARNEGIE
PO BOX 1075, 11 E MAIN
CARNEGIE, OK 73015
Phone 580-654-1004
Manager: ROBERT PETTIT
30150 COUNTY STREET 2475
CARNEGIE, OK 73015
Phone (580) 574-3140

Airport Operational Statistics

Aircraft based on the field: 10
Single engine airplanes: 9
Helicopters: 1
    
Aircraft operations: avg 42/month *
60% transient general aviation
40% local general aviation
* for 12-month period ending 12 May 2017

Instrument Procedures

There are no published instrument procedures at 86F.

Some nearby airports with instrument procedures:

KHBR - Hobart Regional Airport (25 nm W)
2O8 - Hinton Municipal Airport (26 nm NE)
KOJA - Thomas P Stafford Airport (26 nm N)
KFSI - Henry Post Army Airfield (Fort Sill) (30 nm S)
KCHK - Chickasha Municipal Airport (30 nm E)
 
Loc | Ops | Rwys | IFR | FBO | Links
Com | Nav | Svcs | Stats | Notes


 
Area around 86F (Carnegie Municipal Airport)
 
Road maps at: MapQuest Bing Google
 
Aerial photo
WARNING: Photo may not be current or correct
Aerial photo of 86F (Carnegie Municipal Airport)
Photo taken 12-Nov-2005
looking North just before sunset

Do you have a better or more recent aerial photo of Carnegie Municipal Airport that you would like to share? If so, please send us your photo.

 
Sectional chart

 
Airport distance calculator
Flying to Carnegie Municipal Airport? Find the distance to fly.

From to 86F

Sunrise and sunset
Times for 19-Sep-2018
 Local
(UTC-5)
 Zulu
(UTC)
Morning civil twilight06:5611:56
Sunrise07:2112:21
Sunset19:3500:35
Evening civil twilight20:0001:00

Current date and time
Zulu (UTC)  19-Sep-2018 13:39:28
Local (UTC-5)  19-Sep-2018 08:39:28
 
METAR
KHBR 
25nm W 
191253Z AUTO 18007KT 10SM CLR 22/19 A2997 RMK AO2 SLP129 T02170189
KOJA 
26nm N 
191315Z AUTO 20007KT 10SM CLR 23/20 A2996 RMK AO2
KCHK 
30nm E 
191315Z AUTO 18004KT 10SM CLR 23/20 A2993 RMK AO2 T02280202
KCLK 
30nm NW 
191315Z AUTO 16008KT 10SM CLR 22/17 A2996 RMK AO2
KFSI 
31nm S 
191256Z AUTO 18003KT 10SM CLR 22/21 A2995 RMK AO2 SLP133 T02160209 $
KCSM 
33nm NW 
191253Z AUTO 18009KT 10SM CLR 22/18 A2998 RMK AO2 SLP126 T02170178
KRQO 
35nm NE 
191315Z AUTO 18007KT 10SM CLR 22/20 A2998 RMK AO2 T02250202
KLAW 
35nm S 
191253Z 00000KT 9SM CLR 21/20 A2996 RMK AO2 SLP134 T02060200
KRCE 
43nm NE 
191315Z AUTO 10SM CLR 23/20 A2996 RMK AO2
KLTS 
44nm SW 
191256Z AUTO 14003KT 10SM CLR 20/18 A2996 RMK AO2 SLP132 T01950181 $
TAF
KFSI 
31nm S 
182100Z 1821/2003 21010G15KT 9999 SCT060 QNH2988INS BECMG 1823/1824 17009KT 9999 SCT060 QNH2984INS BECMG 1915/1916 19012G20KT 9999 FEW050 QNH2980INS BECMG 2002/2003 16009KT 9999 SKC QNH2985INS TX34/1821Z TN21/1911Z LAST NO AMDS AFT 1903 NEXT 1913
NOTAMs
Click for the latest NOTAMs
NOTAMs are issued by the DoD/FAA and will open in a separate window not controlled by AirNav.

 

 
 

Would you like to see your business listed on this page?

 If your business provides an interesting product or service to pilots, flight crews, aircraft, or users of the Carnegie Municipal Airport, you should consider listing it here.  To start the listing process, click on the button below
 
Add a business
 

Other Pages about Carnegie Municipal Airport

Update a link
 
Copyright © AirNav, LLC. All rights reserved. Privacy Policy  Contact